createdAt,value
2019-05-13T00:00:57.824Z,5.50
2019-05-13T00:01:57.722Z,4.10
2019-05-13T00:02:57.625Z,3.80
2019-05-13T00:03:57.649Z,5.00
2019-05-13T00:04:57.427Z,6.20
2019-05-13T00:05:57.327Z,4.40
2019-05-13T00:06:57.875Z,3.70
2019-05-13T00:07:57.128Z,5.60
2019-05-13T00:08:57.042Z,4.10
2019-05-13T00:09:56.929Z,4.50
2019-05-13T00:10:56.934Z,3.10
2019-05-13T00:11:56.730Z,4.20
2019-05-13T00:12:56.637Z,3.90
2019-05-13T00:13:56.547Z,4.70
2019-05-13T00:14:56.433Z,2.90
2019-05-13T00:15:56.334Z,3.80
2019-05-13T00:16:56.233Z,6.00
2019-05-13T00:17:56.134Z,4.70
2019-05-13T00:18:56.048Z,4.40
2019-05-13T00:19:55.935Z,4.50
2019-05-13T00:20:55.863Z,5.80
2019-05-13T00:21:55.739Z,4.30
2019-05-13T00:22:55.638Z,3.30
2019-05-13T00:23:55.553Z,4.90
2019-05-13T00:24:55.440Z,5.30
2019-05-13T00:25:55.340Z,3.40
2019-05-13T00:26:55.240Z,5.80
2019-05-13T00:27:55.138Z,4.80
2019-05-13T00:28:55.054Z,4.60
2019-05-13T00:29:54.940Z,5.30
2019-05-13T00:30:54.843Z,3.10
2019-05-13T00:31:54.840Z,4.50
2019-05-13T00:32:54.703Z,3.80
2019-05-13T00:33:54.561Z,6.20
2019-05-13T00:34:54.443Z,5.70
2019-05-13T00:35:54.342Z,4.80
2019-05-13T00:37:07.837Z,5.10
2019-05-13T00:37:54.341Z,5.50
2019-05-13T00:38:54.166Z,4.60
2019-05-13T00:39:54.355Z,4.30
2019-05-13T00:40:54.523Z,4.20
2019-05-13T00:41:53.747Z,5.20
2019-05-13T00:42:54.508Z,4.80
2019-05-13T00:43:53.562Z,4.20
2019-05-13T00:44:53.551Z,4.50
2019-05-13T00:45:53.498Z,4.10
2019-05-13T00:46:53.843Z,5.40
2019-05-13T00:47:53.716Z,4.10
2019-05-13T00:48:54.076Z,5.00
2019-05-13T00:49:54.127Z,5.00
2019-05-13T00:50:54.458Z,3.60
2019-05-13T00:51:53.442Z,5.20
2019-05-13T00:52:53.689Z,4.60
2019-05-13T00:53:53.657Z,4.20
2019-05-13T00:54:53.467Z,4.50
2019-05-13T00:55:53.579Z,5.00
2019-05-13T00:56:54.624Z,5.80
2019-05-13T00:57:54.135Z,5.10
2019-05-13T00:58:54.060Z,4.90
2019-05-13T00:59:54.022Z,4.80
2019-05-13T01:00:51.850Z,3.90
2019-05-13T01:01:53.355Z,4.20
2019-05-13T01:02:53.357Z,4.80
2019-05-13T01:03:53.301Z,4.80
2019-05-13T01:04:53.539Z,4.30
2019-05-13T01:05:53.409Z,4.80
2019-05-13T01:06:53.607Z,6.90
2019-05-13T01:07:53.550Z,5.50
2019-05-13T01:08:53.458Z,6.20
2019-05-13T01:09:50.968Z,5.70
2019-05-13T01:10:50.852Z,6.40
2019-05-13T01:11:50.751Z,6.70
2019-05-13T01:12:50.651Z,5.50
2019-05-13T01:13:50.551Z,4.90
2019-05-13T01:14:50.474Z,4.70
2019-05-13T01:15:50.348Z,5.60
2019-05-13T01:16:50.251Z,6.80
2019-05-13T01:17:50.151Z,5.10
2019-05-13T01:18:50.049Z,6.70
2019-05-13T01:19:49.963Z,4.60
2019-05-13T01:20:49.849Z,6.10
2019-05-13T01:21:49.748Z,5.90
2019-05-13T01:22:49.650Z,5.70
2019-05-13T01:23:49.548Z,7.30
2019-05-13T01:24:49.462Z,6.90
2019-05-13T01:25:49.349Z,7.40
2019-05-13T01:26:49.247Z,5.70
2019-05-13T01:27:49.154Z,5.80
2019-05-13T01:28:49.047Z,5.20
2019-05-13T01:29:48.961Z,6.40
2019-05-13T01:30:48.847Z,7.30
2019-05-13T01:31:48.747Z,5.90
2019-05-13T01:32:48.647Z,5.40
2019-05-13T01:33:48.545Z,5.10
2019-05-13T01:34:48.459Z,5.80
2019-05-13T01:35:48.345Z,5.40
2019-05-13T01:36:48.245Z,4.80
2019-05-13T01:37:48.145Z,4.90
2019-05-13T01:38:48.045Z,5.50
2019-05-13T01:39:47.959Z,6.50
2019-05-13T01:40:47.845Z,7.40
2019-05-13T01:41:47.747Z,5.70
2019-05-13T01:42:47.645Z,5.70
2019-05-13T01:43:47.543Z,4.80
2019-05-13T01:44:47.447Z,6.60
2019-05-13T01:45:47.359Z,6.20
2019-05-13T01:46:47.244Z,7.40
2019-05-13T01:47:47.142Z,6.20
2019-05-13T01:48:47.045Z,5.60
2019-05-13T01:49:46.955Z,6.20
2019-05-13T01:50:46.849Z,5.10
2019-05-13T01:51:46.742Z,8.00
2019-05-13T01:52:46.641Z,6.10
2019-05-13T01:53:46.546Z,7.10
2019-05-13T01:54:46.546Z,6.30
2019-05-13T01:55:46.357Z,5.50
2019-05-13T01:56:46.244Z,7.40
2019-05-13T01:57:46.139Z,7.00
2019-05-13T01:58:46.041Z,8.70
2019-05-13T01:59:45.947Z,6.10
2019-05-13T02:00:45.852Z,6.00
2019-05-13T02:01:45.838Z,5.30
2019-05-13T02:02:45.639Z,5.00
2019-05-13T02:03:45.544Z,6.50
2019-05-13T02:04:45.438Z,7.40
2019-05-13T02:05:45.351Z,5.30
2019-05-13T02:06:45.239Z,6.90
2019-05-13T02:07:57.105Z,7.40
2019-05-13T02:08:45.142Z,6.70
2019-05-13T02:09:44.939Z,8.90
2019-05-13T02:10:44.853Z,7.20
2019-05-13T02:11:46.704Z,7.20
2019-05-13T02:12:44.912Z,7.60
2019-05-13T02:13:44.795Z,5.00
2019-05-13T02:14:44.487Z,8.70
2019-05-13T02:15:45.233Z,8.20
2019-05-13T02:16:44.591Z,7.80
2019-05-13T02:17:44.872Z,9.00
2019-05-13T02:18:44.523Z,7.40
2019-05-13T02:19:44.266Z,6.10
2019-05-13T02:20:44.452Z,6.30
2019-05-13T02:21:44.009Z,7.20
2019-05-13T02:22:44.565Z,8.00
2019-05-13T02:23:44.315Z,6.40
2019-05-13T02:24:44.698Z,5.30
2019-05-13T02:25:43.658Z,8.90
2019-05-13T02:26:43.820Z,7.00
2019-05-13T02:27:43.897Z,7.70
2019-05-13T02:28:43.625Z,9.40
2019-05-13T02:29:43.610Z,7.50
2019-05-13T02:30:45.589Z,7.90
2019-05-13T02:31:50.881Z,10.30
2019-05-13T02:32:43.004Z,7.00
2019-05-13T02:33:42.622Z,7.70
2019-05-13T02:34:43.744Z,6.20
2019-05-13T02:35:43.359Z,6.40
2019-05-13T02:36:43.882Z,9.50
2019-05-13T02:37:43.298Z,7.40
2019-05-13T02:38:42.802Z,7.50
2019-05-13T02:39:42.704Z,9.20
2019-05-13T02:40:43.186Z,7.00
2019-05-13T02:41:43.180Z,9.10
2019-05-13T02:42:43.661Z,8.30
2019-05-13T02:43:45.037Z,9.50
2019-05-13T02:44:43.739Z,16.40
2019-05-13T02:45:42.884Z,10.50
2019-05-13T02:46:44.376Z,10.80
2019-05-13T02:47:44.382Z,9.10
2019-05-13T02:48:42.261Z,9.60
2019-05-13T02:49:43.021Z,9.50
2019-05-13T02:50:43.907Z,7.30
2019-05-13T02:51:42.845Z,9.40
2019-05-13T02:52:43.936Z,7.10
2019-05-13T02:53:43.473Z,7.00
2019-05-13T02:54:42.722Z,11.60
2019-05-13T02:55:43.525Z,9.00
2019-05-13T02:56:42.219Z,8.80
2019-05-13T02:57:43.233Z,7.30
2019-05-13T02:58:42.877Z,9.30
2019-05-13T02:59:42.267Z,10.80
2019-05-13T03:00:43.785Z,7.10
2019-05-13T03:01:43.000Z,9.20
2019-05-13T03:02:43.253Z,8.80
2019-05-13T03:03:39.510Z,7.90
2019-05-13T03:04:43.089Z,7.90
2019-05-13T03:05:42.588Z,10.90
2019-05-13T03:06:39.216Z,11.10
2019-05-13T03:07:42.241Z,9.10
2019-05-13T03:08:46.256Z,12.00
2019-05-13T03:09:42.020Z,8.40
2019-05-13T03:10:38.811Z,10.80
2019-05-13T03:11:41.519Z,7.80
2019-05-13T03:12:38.594Z,8.00
2019-05-13T03:13:38.498Z,13.50
2019-05-13T03:14:38.392Z,9.20
2019-05-13T03:15:38.293Z,8.50
2019-05-13T03:16:38.214Z,11.10
2019-05-13T03:17:38.196Z,10.40
2019-05-13T03:18:37.990Z,8.70
2019-05-13T03:19:37.885Z,9.50
2019-05-13T03:20:37.783Z,11.10
2019-05-13T03:21:37.698Z,8.80
2019-05-13T03:22:37.598Z,9.80
2019-05-13T03:23:37.480Z,9.30
2019-05-13T03:24:37.383Z,10.00
2019-05-13T03:25:37.281Z,9.10
2019-05-13T03:26:37.202Z,10.40
2019-05-13T03:27:37.078Z,9.60
2019-05-13T03:28:36.975Z,14.90
2019-05-13T03:29:36.877Z,11.10
2019-05-13T03:30:36.773Z,10.40
2019-05-13T03:31:36.685Z,10.10
2019-05-13T03:32:44.479Z,11.30
2019-05-13T03:33:37.966Z,10.30
2019-05-13T03:34:36.871Z,7.90
2019-05-13T03:35:37.259Z,11.80
2019-05-13T03:36:36.751Z,11.30
2019-05-13T03:37:36.063Z,12.50
2019-05-13T03:38:58.192Z,9.30
2019-05-13T03:39:35.862Z,9.20
2019-05-13T03:40:35.762Z,12.80
2019-05-13T03:41:35.673Z,12.10
2019-05-13T03:42:35.564Z,12.20
2019-05-13T03:43:35.458Z,11.70
2019-05-13T03:44:35.352Z,12.70
2019-05-13T03:45:35.254Z,12.40
2019-05-13T03:46:35.170Z,10.80
2019-05-13T03:47:35.052Z,11.70
2019-05-13T03:48:35.000Z,10.50
2019-05-13T03:49:34.850Z,14.20
2019-05-13T03:50:35.034Z,11.10
2019-05-13T03:51:34.662Z,12.50
2019-05-13T03:52:34.545Z,11.70
2019-05-13T03:53:34.455Z,12.00
2019-05-13T03:54:34.341Z,13.40
2019-05-13T03:55:34.258Z,13.40
2019-05-13T03:56:34.155Z,13.90
2019-05-13T03:57:34.093Z,13.00
2019-05-13T03:58:33.936Z,11.70
2019-05-13T03:59:33.894Z,12.40
2019-05-13T04:00:33.733Z,12.70
2019-05-13T04:01:33.644Z,13.50
2019-05-13T04:02:33.535Z,13.20
2019-05-13T04:03:33.456Z,12.00
2019-05-13T04:04:33.324Z,13.90
2019-05-13T04:05:33.633Z,11.50
2019-05-13T04:06:33.124Z,11.60
2019-05-13T04:07:33.040Z,13.70
2019-05-13T04:08:32.984Z,15.70
2019-05-13T04:09:36.279Z,12.40
2019-05-13T04:10:33.588Z,12.30
2019-05-13T04:11:33.135Z,12.20
2019-05-13T04:12:33.544Z,13.00
2019-05-13T04:13:33.567Z,13.50
2019-05-13T04:14:33.364Z,14.40
2019-05-13T04:15:32.210Z,15.90
2019-05-13T04:16:32.406Z,16.20
2019-05-13T04:17:32.183Z,16.80
2019-05-13T04:18:32.094Z,14.10
2019-05-13T04:19:33.627Z,15.90
2019-05-13T04:20:33.318Z,11.90
2019-05-13T04:21:33.852Z,15.40
2019-05-13T04:22:33.243Z,12.80
2019-05-13T04:23:32.291Z,12.70
2019-05-13T04:24:33.342Z,15.50
2019-05-13T04:25:32.217Z,16.10
2019-05-13T04:26:32.339Z,12.70
2019-05-13T04:27:32.695Z,13.30
2019-05-13T04:28:33.142Z,18.60
2019-05-13T04:29:32.859Z,12.90
2019-05-13T04:30:33.042Z,16.30
2019-05-13T04:31:33.278Z,15.20
2019-05-13T04:32:33.481Z,14.80
2019-05-13T04:33:33.115Z,14.50
2019-05-13T04:34:33.652Z,17.90
2019-05-13T04:35:32.414Z,16.30
2019-05-13T04:36:32.023Z,14.20
2019-05-13T04:37:32.831Z,15.30
2019-05-13T04:38:32.189Z,13.90
2019-05-13T04:39:44.483Z,15.00
2019-05-13T04:40:32.950Z,15.00
2019-05-13T04:41:32.964Z,16.10
2019-05-13T04:42:29.497Z,15.30
2019-05-13T04:43:31.637Z,13.30
2019-05-13T04:44:32.040Z,14.80
2019-05-13T04:45:32.598Z,14.30
2019-05-13T04:46:32.512Z,17.20
2019-05-13T04:47:28.999Z,16.90
2019-05-13T04:48:28.891Z,26.90
2019-05-13T04:49:32.287Z,30.90
2019-05-13T04:50:28.684Z,30.90
2019-05-13T04:51:28.586Z,25.50
2019-05-13T04:52:28.497Z,31.50
2019-05-13T04:53:28.384Z,29.30
2019-05-13T04:54:28.284Z,26.00
2019-05-13T04:55:28.191Z,26.30
2019-05-13T04:56:28.086Z,28.00
2019-05-13T04:57:27.999Z,21.10
2019-05-13T04:58:28.206Z,14.60
2019-05-13T04:59:27.783Z,15.10
2019-05-13T05:00:27.688Z,14.70
2019-05-13T05:01:27.596Z,14.20
2019-05-13T05:02:37.430Z,14.20
2019-05-13T05:03:33.294Z,14.90
2019-05-13T05:04:30.412Z,15.00
2019-05-13T05:05:27.190Z,16.10
2019-05-13T05:06:27.100Z,13.40
2019-05-13T05:07:27.005Z,15.00
2019-05-13T05:08:26.892Z,17.00
2019-05-13T05:09:26.796Z,14.10
2019-05-13T05:10:34.783Z,13.70
2019-05-13T05:11:26.593Z,17.80
2019-05-13T05:12:26.510Z,16.20
2019-05-13T05:13:26.399Z,15.40
2019-05-13T05:14:26.298Z,15.40
2019-05-13T05:15:26.204Z,14.30
2019-05-13T05:16:26.100Z,18.20
2019-05-13T05:17:26.109Z,15.90
2019-05-13T05:18:25.913Z,14.10
2019-05-13T05:19:25.803Z,12.00
2019-05-13T05:20:25.702Z,16.40
2019-05-13T05:21:25.602Z,14.50
2019-05-13T05:22:25.503Z,12.50
2019-05-13T05:23:25.419Z,15.00
2019-05-13T05:24:25.408Z,12.80
2019-05-13T05:25:25.207Z,12.80
2019-05-13T05:26:25.108Z,12.90
2019-05-13T05:27:25.011Z,14.70
2019-05-13T05:28:24.928Z,14.90
2019-05-13T05:29:24.812Z,14.90
2019-05-13T05:30:24.717Z,13.60
2019-05-13T05:31:24.720Z,13.90
2019-05-13T05:32:24.516Z,14.00
2019-05-13T05:33:24.442Z,14.40
2019-05-13T05:34:24.327Z,14.00
2019-05-13T05:35:24.223Z,13.80
2019-05-13T05:36:24.124Z,13.80
2019-05-13T05:37:24.026Z,14.50
2019-05-13T05:38:26.133Z,14.60
2019-05-13T05:39:23.828Z,14.70
2019-05-13T05:40:31.433Z,14.30
2019-05-13T05:41:23.633Z,15.80
2019-05-13T05:42:23.535Z,13.40
2019-05-13T05:43:23.458Z,12.80
2019-05-13T05:44:23.338Z,13.80
2019-05-13T05:45:23.353Z,12.90
2019-05-13T05:46:23.144Z,13.20
2019-05-13T05:47:23.047Z,14.10
2019-05-13T05:48:22.957Z,13.80
2019-05-13T05:49:22.849Z,12.40
2019-05-13T05:50:23.079Z,12.20
2019-05-13T05:51:22.653Z,13.30
2019-05-13T05:52:22.656Z,13.70
2019-05-13T05:53:22.474Z,12.30
2019-05-13T05:54:22.360Z,15.00
2019-05-13T05:55:22.264Z,13.90
2019-05-13T05:56:22.164Z,12.50
2019-05-13T05:57:22.550Z,13.70
2019-05-13T05:58:22.842Z,12.50
2019-05-13T05:59:22.014Z,11.40
2019-05-13T06:00:22.090Z,13.70
2019-05-13T06:01:23.330Z,11.70
2019-05-13T06:02:23.049Z,12.20
2019-05-13T06:03:21.918Z,11.50
2019-05-13T06:04:22.084Z,13.20
2019-05-13T06:05:21.449Z,11.40
2019-05-13T06:06:22.733Z,10.40
2019-05-13T06:07:21.956Z,13.00
2019-05-13T06:08:22.164Z,14.10
2019-05-13T06:09:21.420Z,10.70
2019-05-13T06:10:22.537Z,11.50
2019-05-13T06:11:22.273Z,11.60
2019-05-13T06:12:21.378Z,10.40
2019-05-13T06:13:21.418Z,12.10
2019-05-13T06:14:21.963Z,12.40
2019-05-13T06:15:22.417Z,13.00
2019-05-13T06:16:21.811Z,12.90
2019-05-13T06:17:21.908Z,11.30
2019-05-13T06:18:22.170Z,12.30
2019-05-13T06:19:22.332Z,11.60
2019-05-13T06:20:21.183Z,11.40
2019-05-13T06:21:21.518Z,12.20
2019-05-13T06:22:21.699Z,14.00
2019-05-13T06:23:21.985Z,13.10
2019-05-13T06:24:22.266Z,12.30
2019-05-13T06:25:22.994Z,11.60
2019-05-13T06:26:19.266Z,15.00
2019-05-13T06:27:21.250Z,13.10
2019-05-13T06:28:21.577Z,11.40
2019-05-13T06:29:18.993Z,10.30
2019-05-13T06:30:21.534Z,10.90
2019-05-13T06:31:18.781Z,9.80
2019-05-13T06:32:23.486Z,12.10
2019-05-13T06:33:21.035Z,12.60
2019-05-13T06:34:18.504Z,11.50
2019-05-13T06:35:18.395Z,11.70
2019-05-13T06:36:18.299Z,12.00
2019-05-13T06:37:18.203Z,10.10
2019-05-13T06:38:18.107Z,10.70
2019-05-13T06:39:18.023Z,10.10
2019-05-13T06:40:17.917Z,9.10
2019-05-13T06:41:17.819Z,8.90
2019-05-13T06:42:17.728Z,10.40
2019-05-13T06:43:17.624Z,8.90
2019-05-13T06:44:17.549Z,10.90
2019-05-13T06:45:17.434Z,8.70
2019-05-13T06:46:17.339Z,8.20
2019-05-13T06:47:17.243Z,8.70
2019-05-13T06:48:17.148Z,9.30
2019-05-13T06:49:17.072Z,8.70
2019-05-13T06:50:16.962Z,7.00
2019-05-13T06:51:16.864Z,7.90
2019-05-13T06:52:16.771Z,8.50
2019-05-13T06:53:16.678Z,8.30
2019-05-13T06:54:16.597Z,8.00
2019-05-13T06:55:16.492Z,8.00
2019-05-13T06:56:16.396Z,7.20
2019-05-13T06:57:16.304Z,7.20
2019-05-13T06:58:16.211Z,8.00
2019-05-13T06:59:16.116Z,9.30
2019-05-13T07:00:16.037Z,10.20
2019-05-13T07:01:15.929Z,9.30
2019-05-13T07:02:15.840Z,8.90
2019-05-13T07:03:15.742Z,10.10
2019-05-13T07:04:15.653Z,6.40
2019-05-13T07:05:15.577Z,7.20
2019-05-13T07:06:15.468Z,7.80
2019-05-13T07:07:17.291Z,7.40
2019-05-13T07:08:15.283Z,9.90
2019-05-13T07:09:15.190Z,9.10
2019-05-13T07:10:15.109Z,6.60
2019-05-13T07:11:21.058Z,7.20
2019-05-13T07:12:14.913Z,7.60
2019-05-13T07:13:14.821Z,7.30
2019-05-13T07:14:14.727Z,8.10
2019-05-13T07:15:14.765Z,7.30
2019-05-13T07:16:14.543Z,9.90
2019-05-13T07:17:14.495Z,9.90
2019-05-13T07:18:16.203Z,8.40
2019-05-13T07:19:14.271Z,7.30
2019-05-13T07:20:14.194Z,7.30
2019-05-13T07:21:14.088Z,10.60
2019-05-13T07:22:14.104Z,8.00
2019-05-13T07:23:13.907Z,10.40
2019-05-13T07:24:13.818Z,8.40
2019-05-13T07:25:13.737Z,9.10
2019-05-13T07:26:13.633Z,9.70
2019-05-13T07:27:13.544Z,7.50
2019-05-13T07:28:13.452Z,9.20
2019-05-13T07:29:13.890Z,6.90
2019-05-13T07:30:13.285Z,7.10
2019-05-13T07:31:13.179Z,11.30
2019-05-13T07:32:13.087Z,8.30
2019-05-13T07:33:13.042Z,9.50
2019-05-13T07:34:12.910Z,8.50
2019-05-13T07:35:14.534Z,7.10
2019-05-13T07:36:12.962Z,7.40
2019-05-13T07:37:12.634Z,7.10
2019-05-13T07:38:12.543Z,8.10
2019-05-13T07:39:12.454Z,9.80
2019-05-13T07:40:12.378Z,8.20
2019-05-13T07:41:12.266Z,8.70
2019-05-13T07:42:12.517Z,8.30
2019-05-13T07:43:12.530Z,8.10
2019-05-13T07:44:12.062Z,10.20
2019-05-13T07:45:12.319Z,8.30
2019-05-13T07:46:12.563Z,7.70
2019-05-13T07:47:12.898Z,7.80
2019-05-13T07:48:20.519Z,7.80
2019-05-13T07:49:12.071Z,6.40
2019-05-13T07:50:12.775Z,8.20
2019-05-13T07:51:11.891Z,8.20
2019-05-13T07:52:11.873Z,7.40
2019-05-13T07:53:16.392Z,6.60
2019-05-13T07:54:11.463Z,7.60
2019-05-13T07:55:11.995Z,7.20
2019-05-13T07:56:12.470Z,6.60
2019-05-13T07:57:12.214Z,7.60
2019-05-13T07:58:11.483Z,9.20
2019-05-13T07:59:12.299Z,8.70
2019-05-13T08:00:12.431Z,9.10
2019-05-13T08:01:12.309Z,7.10
2019-05-13T08:02:12.361Z,7.30
2019-05-13T08:03:12.393Z,8.70
2019-05-13T08:04:22.092Z,7.60
2019-05-13T08:05:12.026Z,6.30
2019-05-13T08:06:11.111Z,7.30
2019-05-13T08:07:11.965Z,7.00
2019-05-13T08:08:11.727Z,6.90
2019-05-13T08:09:12.590Z,6.60
2019-05-13T08:10:11.550Z,8.20
2019-05-13T08:11:09.533Z,7.90
2019-05-13T08:12:11.920Z,13.00
2019-05-13T08:13:11.662Z,31.20
2019-05-13T08:14:09.243Z,13.00
2019-05-13T08:15:11.751Z,6.00
2019-05-13T08:16:09.075Z,8.10
2019-05-13T08:17:11.490Z,8.90
2019-05-13T08:18:08.880Z,6.40
2019-05-13T08:19:08.785Z,7.40
2019-05-13T08:20:08.703Z,7.70
2019-05-13T08:21:08.619Z,5.50
2019-05-13T08:22:08.524Z,7.90
2019-05-13T08:23:08.428Z,5.50
2019-05-13T08:24:08.336Z,7.60
2019-05-13T08:25:08.245Z,6.40
2019-05-13T08:26:08.176Z,7.30
2019-05-13T08:27:08.064Z,4.70
2019-05-13T08:28:07.975Z,7.30
2019-05-13T08:29:07.884Z,6.90
2019-05-13T08:30:07.793Z,7.60
2019-05-13T08:31:07.822Z,9.50
2019-05-13T08:32:07.742Z,8.70
2019-05-13T08:33:07.520Z,7.60
2019-05-13T08:34:07.433Z,7.30
2019-05-13T08:35:08.984Z,10.60
2019-05-13T08:36:07.266Z,7.60
2019-05-13T08:37:07.162Z,6.70
2019-05-13T08:38:07.177Z,8.60
2019-05-13T08:39:06.982Z,4.30
2019-05-13T08:40:06.892Z,8.20
2019-05-13T08:41:09.741Z,8.20
2019-05-13T08:42:15.128Z,6.10
2019-05-13T08:43:07.036Z,8.80
2019-05-13T08:44:06.536Z,9.00
2019-05-13T08:45:06.543Z,7.60
2019-05-13T08:46:06.371Z,4.80
2019-05-13T08:47:06.268Z,6.00
2019-05-13T08:48:06.179Z,5.40
2019-05-13T08:49:06.089Z,6.90
2019-05-13T08:50:06.003Z,8.80
2019-05-13T08:51:05.927Z,7.00
2019-05-13T08:52:05.925Z,8.70
2019-05-13T08:53:05.733Z,6.10
2019-05-13T08:54:05.645Z,7.80
2019-05-13T08:55:05.561Z,6.30
2019-05-13T08:56:05.479Z,5.90
2019-05-13T08:57:05.400Z,5.50
2019-05-13T08:58:05.289Z,6.30
2019-05-13T08:59:05.306Z,5.20
2019-05-13T09:00:05.759Z,5.90
2019-05-13T09:01:05.028Z,8.50
2019-05-13T09:02:04.951Z,5.90
2019-05-13T09:03:06.302Z,4.30
2019-05-13T09:04:04.765Z,4.70
2019-05-13T09:05:04.672Z,5.50
2019-05-13T09:06:04.593Z,5.70
2019-05-13T09:07:04.507Z,5.50
2019-05-13T09:08:04.406Z,4.80
2019-05-13T09:09:04.322Z,6.40
2019-05-13T09:10:04.230Z,6.20
2019-05-13T09:11:04.143Z,5.80
2019-05-13T09:12:04.070Z,5.00
2019-05-13T09:13:04.071Z,9.80
2019-05-13T09:14:03.881Z,5.70
2019-05-13T09:15:03.814Z,5.70
2019-05-13T09:16:03.710Z,5.50
2019-05-13T09:17:03.632Z,6.00
2019-05-13T09:18:03.549Z,5.40
2019-05-13T09:19:04.065Z,6.10
2019-05-13T09:20:03.350Z,6.50
2019-05-13T09:21:03.266Z,7.40
2019-05-13T09:22:03.542Z,6.10
2019-05-13T09:23:03.087Z,5.80
2019-05-13T09:24:03.000Z,6.60
2019-05-13T09:25:02.912Z,5.50
2019-05-13T09:26:02.894Z,6.10
2019-05-13T09:27:02.754Z,5.20
2019-05-13T09:28:02.781Z,7.80
2019-05-13T09:29:02.562Z,6.40
2019-05-13T09:30:02.952Z,6.40
2019-05-13T09:31:02.417Z,5.00
2019-05-13T09:32:03.679Z,4.70
2019-05-13T09:33:02.207Z,4.00
2019-05-13T09:34:02.118Z,4.60
2019-05-13T09:35:02.920Z,6.50
2019-05-13T09:36:02.362Z,5.20
2019-05-13T09:37:02.854Z,5.40
2019-05-13T09:38:03.339Z,5.90
2019-05-13T09:39:02.200Z,5.30
2019-05-13T09:40:02.383Z,5.10
2019-05-13T09:41:02.065Z,4.20
2019-05-13T09:42:02.620Z,4.80
2019-05-13T09:43:02.569Z,4.80
2019-05-13T09:44:01.987Z,5.30
2019-05-13T09:45:02.257Z,5.80
2019-05-13T09:46:01.771Z,3.70
2019-05-13T09:47:02.585Z,5.50
2019-05-13T09:48:01.574Z,5.30
2019-05-13T09:49:12.802Z,5.40
2019-05-13T09:50:00.703Z,7.80
2019-05-13T09:51:02.475Z,5.40
2019-05-13T09:52:01.661Z,5.30
2019-05-13T09:53:02.700Z,4.90
2019-05-13T09:54:01.348Z,6.20
2019-05-13T09:55:02.868Z,5.30
2019-05-13T09:56:02.367Z,5.40
2019-05-13T09:57:01.727Z,4.10
2019-05-13T09:58:02.259Z,6.90
2019-05-13T09:59:01.787Z,5.40
2019-05-13T10:00:01.756Z,5.90
2019-05-13T10:00:59.736Z,4.50
2019-05-13T10:02:02.537Z,4.50
2019-05-13T10:03:02.020Z,4.20
2019-05-13T10:04:00.397Z,3.60
2019-05-13T10:05:01.952Z,4.20
2019-05-13T10:06:01.946Z,4.60
2019-05-13T10:07:01.602Z,5.10
2019-05-13T10:08:02.049Z,4.30
2019-05-13T10:09:01.738Z,3.00
2019-05-13T10:10:01.237Z,5.60
2019-05-13T10:11:01.353Z,6.20
2019-05-13T10:11:58.775Z,7.40
2019-05-13T10:13:09.114Z,5.60
2019-05-13T10:13:58.594Z,5.10
2019-05-13T10:14:58.511Z,5.00
2019-05-13T10:15:58.420Z,8.00
2019-05-13T10:16:58.335Z,6.90
2019-05-13T10:17:58.258Z,3.60
2019-05-13T10:18:58.159Z,3.80
2019-05-13T10:19:58.071Z,3.80
2019-05-13T10:20:59.048Z,5.10
2019-05-13T10:21:57.899Z,5.40
2019-05-13T10:22:57.819Z,5.00
2019-05-13T10:23:58.726Z,6.60
2019-05-13T10:24:57.631Z,4.60
2019-05-13T10:25:57.546Z,4.30
2019-05-13T10:26:57.459Z,4.10
2019-05-13T10:27:57.384Z,4.60
2019-05-13T10:28:57.280Z,4.90
2019-05-13T10:29:57.306Z,5.80
2019-05-13T10:30:57.110Z,4.80
2019-05-13T10:31:57.021Z,4.70
2019-05-13T10:32:59.419Z,5.10
2019-05-13T10:33:56.843Z,5.90
2019-05-13T10:34:56.770Z,4.80
2019-05-13T10:35:56.671Z,5.30
2019-05-13T10:36:56.686Z,5.30
2019-05-13T10:37:56.507Z,6.30
2019-05-13T10:38:56.406Z,4.00
2019-05-13T10:39:56.317Z,5.60
2019-05-13T10:40:56.231Z,6.30
2019-05-13T10:41:56.142Z,6.20
2019-05-13T10:42:56.066Z,5.00
2019-05-13T10:43:56.079Z,4.00
2019-05-13T10:44:55.880Z,4.60
2019-05-13T10:45:55.792Z,2.80
2019-05-13T10:46:55.702Z,2.90
2019-05-13T10:47:55.631Z,3.90
2019-05-13T10:48:55.530Z,4.20
2019-05-13T10:49:55.448Z,3.80
2019-05-13T10:50:55.460Z,3.70
2019-05-13T10:51:55.262Z,4.40
2019-05-13T10:52:55.192Z,4.40
2019-05-13T10:53:59.440Z,4.60
2019-05-13T10:54:54.996Z,4.40
2019-05-13T10:55:54.912Z,4.40
2019-05-13T10:56:59.455Z,3.60
2019-05-13T10:57:54.752Z,3.70
2019-05-13T10:58:54.970Z,4.80
2019-05-13T10:59:59.527Z,4.00
2019-05-13T11:00:54.471Z,5.30
2019-05-13T11:01:54.384Z,4.40
2019-05-13T11:02:54.308Z,4.40
2019-05-13T11:03:54.211Z,3.60
2019-05-13T11:04:54.119Z,4.40
2019-05-13T11:05:54.032Z,5.00
2019-05-13T11:06:53.945Z,4.00
2019-05-13T11:07:53.870Z,4.00
2019-05-13T11:08:54.139Z,3.40
2019-05-13T11:09:53.680Z,3.40
2019-05-13T11:10:53.596Z,4.60
2019-05-13T11:11:53.607Z,3.70
2019-05-13T11:12:53.431Z,5.40
2019-05-13T11:13:59.207Z,6.30
2019-05-13T11:14:55.135Z,4.40
2019-05-13T11:15:57.908Z,4.50
2019-05-13T11:16:53.070Z,3.80
2019-05-13T11:17:53.024Z,3.50
2019-05-13T11:18:53.005Z,2.70
2019-05-13T11:19:52.805Z,3.80
2019-05-13T11:20:52.713Z,3.70
2019-05-13T11:21:52.625Z,5.30
2019-05-13T11:22:52.566Z,3.90
2019-05-13T11:23:52.453Z,2.20
2019-05-13T11:24:52.365Z,4.80
2019-05-13T11:25:52.538Z,5.10
2019-05-13T11:27:53.023Z,2.90
2019-05-13T11:28:52.376Z,3.10
2019-05-13T11:29:52.487Z,2.90
2019-05-13T11:30:52.219Z,3.30
2019-05-13T11:31:52.802Z,6.10
2019-05-13T11:32:51.842Z,4.20
2019-05-13T11:33:52.195Z,5.30
2019-05-13T11:34:53.013Z,5.40
2019-05-13T11:35:52.293Z,5.10
2019-05-13T11:36:53.225Z,3.40
2019-05-13T11:37:52.193Z,3.40
2019-05-13T11:38:53.174Z,3.30
2019-05-13T11:39:51.632Z,3.60
2019-05-13T11:40:52.339Z,4.00
2019-05-13T11:41:50.865Z,4.00
2019-05-13T11:42:52.665Z,3.40
2019-05-13T11:44:11.485Z,2.70
2019-05-13T11:44:52.724Z,4.60
2019-05-13T11:45:50.866Z,3.60
2019-05-13T11:46:53.077Z,3.80
2019-05-13T11:47:52.192Z,3.60
2019-05-13T11:48:51.864Z,4.60
2019-05-13T11:49:52.132Z,4.90
2019-05-13T11:50:53.245Z,5.40
2019-05-13T11:51:51.908Z,4.00
2019-05-13T11:52:52.462Z,5.00
2019-05-13T11:53:50.561Z,5.50
2019-05-13T11:54:53.161Z,4.80
2019-05-13T11:55:52.172Z,4.10
2019-05-13T11:56:57.408Z,5.10
2019-05-13T11:57:49.452Z,4.40
2019-05-13T11:58:53.041Z,4.90
2019-05-13T11:59:52.387Z,4.10
2019-05-13T12:00:52.764Z,6.90
2019-05-13T12:01:49.098Z,3.70
2019-05-13T12:02:52.046Z,4.80
2019-05-13T12:03:48.931Z,4.50
2019-05-13T12:04:48.830Z,3.50
2019-05-13T12:05:48.738Z,5.60
2019-05-13T12:06:53.312Z,4.70
2019-05-13T12:07:48.559Z,5.00
2019-05-13T12:08:51.988Z,5.10
2019-05-13T12:09:48.381Z,5.50
2019-05-13T12:10:48.292Z,3.30
2019-05-13T12:11:48.201Z,3.40
2019-05-13T12:12:48.111Z,4.70
2019-05-13T12:13:48.038Z,5.00
2019-05-13T12:15:16.254Z,4.40
2019-05-13T12:15:49.893Z,4.80
2019-05-13T12:16:47.761Z,3.70
2019-05-13T12:17:47.677Z,4.70
2019-05-13T12:18:47.608Z,6.00
2019-05-13T12:19:47.490Z,4.60
2019-05-13T12:20:47.402Z,3.40
2019-05-13T12:21:47.324Z,3.90
2019-05-13T12:22:47.223Z,4.60
2019-05-13T12:23:47.148Z,3.90
2019-05-13T12:24:47.044Z,4.40
2019-05-13T12:25:46.959Z,4.00
2019-05-13T12:26:46.867Z,4.40
2019-05-13T12:27:46.778Z,4.00
2019-05-13T12:28:46.691Z,3.60
2019-05-13T12:29:46.615Z,5.30
2019-05-13T12:30:46.513Z,3.90
2019-05-13T12:31:46.426Z,4.20
2019-05-13T12:32:46.346Z,4.00
2019-05-13T12:33:46.261Z,3.80
2019-05-13T12:34:46.222Z,5.00
2019-05-13T12:35:46.080Z,3.70
2019-05-13T12:36:45.980Z,4.10
2019-05-13T12:37:45.895Z,4.40
2019-05-13T12:38:45.806Z,2.60
2019-05-13T12:39:45.728Z,4.40
2019-05-13T12:40:45.633Z,5.90
2019-05-13T12:41:45.646Z,5.90
2019-05-13T12:42:47.318Z,5.50
2019-05-13T12:43:45.360Z,3.80
2019-05-13T12:45:00.311Z,5.60
2019-05-13T12:45:45.183Z,4.70
2019-05-13T12:46:50.266Z,3.40
2019-05-13T12:47:45.003Z,4.60
2019-05-13T12:48:44.919Z,5.30
2019-05-13T12:49:44.842Z,3.70
2019-05-13T12:50:44.737Z,5.00
2019-05-13T12:51:44.649Z,4.40
2019-05-13T12:52:44.561Z,2.90
2019-05-13T12:53:44.495Z,3.90
2019-05-13T12:54:44.394Z,3.60
2019-05-13T12:55:51.056Z,3.30
2019-05-13T12:56:44.210Z,4.90
2019-05-13T12:57:44.118Z,3.10
2019-05-13T12:58:44.045Z,4.30
2019-05-13T12:59:43.956Z,4.30
2019-05-13T13:00:43.852Z,3.80
2019-05-13T13:01:43.762Z,6.00
2019-05-13T13:02:50.282Z,4.40
2019-05-13T13:03:43.596Z,3.80
2019-05-13T13:05:07.976Z,5.30
2019-05-13T13:05:43.498Z,5.00
2019-05-13T13:06:45.291Z,4.20
2019-05-13T13:07:43.230Z,4.20
2019-05-13T13:08:48.538Z,6.70
2019-05-13T13:09:43.459Z,5.90
2019-05-13T13:10:42.962Z,3.90
2019-05-13T13:11:43.966Z,4.10